Celebrity Constellation — 9HJB9 — position and weather

sailwx.info

Track history (hours):
 
Tides and Currents Weather Stations Pressure Air Temp Water Temp Dewpoint Dewpoint Depression Visibility Wind Speed Wind Dir Waves Ship Positions

Celebrity Constellation

Last reported at 2017-Sep-22 02:00 UTC. Time now 2017-Sep-22 06:21 UTC.
Position N 42°12' E 010°54'.

Length 294 m; draft 8.3 m.

Type: Passenger vessel. MMSI: 249046000.

Barometer 1020.0 mb
Air temperature 18.0 ° C
Dewpoint 18.0 ° C

Date/timePositionNaut miles runAvg speedWind from/ knotsBaromVisibWave heightAir tempDewpointWater temp
2017-Sep-22 02:00N 42°12' E 010°54'5815.1 1020.0 18.018.0
2017-Sep-21 22:09N 42°47' E 009°51'2315.9
2017-Sep-21 20:42N 43°06' E 009°33'415.1
2017-Sep-21 20:25N 43°08' E 009°28'615.5
2017-Sep-21 20:00N 43°10' E 009°20'916.4
2017-Sep-21 19:29N 43°13' E 009°09'613.0
2017-Sep-21 19:00N 43°12' E 009°00'4306.2 230 / 91020.0 5.4 16.0 21.0
2017-Sep-21 18:59N 43°16' E 008°58'817.0
2017-Sep-21 18:30N 43°18' E 008°47'1017.3
2017-Sep-21 17:54N 43°22' E 008°34'717.3
2017-Sep-21 17:30N 43°24' E 008°25'917.1
2017-Sep-21 17:00N 43°27' E 008°14'1317.2
2017-Sep-21 16:13N 43°31' E 007°56'71318.3
2017-Sep-21 16:00N 43°36' E 006°18'671180.7 080 / 51020.0 5.4 18.0 21.0
2017-Sep-21 15:56N 43°32' E 007°50'817.0
2017-Sep-21 15:28N 43°34' E 007°39'816.8
2017-Sep-21 15:00N 43°37' E 007°29'715.2
2017-Sep-21 14:30N 43°39' E 007°19'2 0.9
2017-Sep-21 12:05N 43°41' E 007°19'0 0.2
2017-Sep-21 12:00N 43°41' E 007°19'4414.7
2017-Sep-21 09:00N 43°36' E 006°18'44 9.1 080 / 51020.0 5.4 18.0 21.0
2017-Sep-21 04:08N 43°39' E 007°19'3 8.8
2017-Sep-21 03:48N 43°37' E 007°20'3 8.2
2017-Sep-21 03:30N 43°34' E 007°21'4 8.2
2017-Sep-21 03:00N 43°30' E 007°22'4 8.3
2017-Sep-21 02:30N 43°26' E 007°23'4 8.1
2017-Sep-21 02:00N 43°23' E 007°21'5304.1
2017-Sep-21 02:00N 43°18' E 007°18'1 2.2 160 / 81018.0 17.017.0
2017-Sep-21 01:30N 43°19' E 007°18'4 8.2
2017-Sep-21 01:00N 43°16' E 007°15'4 8.4
2017-Sep-21 00:30N 43°12' E 007°12'4 8.4
2017-Sep-21 00:00N 43°09' E 007°08'4 8.5
2017-Sep-20 23:30N 43°06' E 007°03'4 8.4
2017-Sep-20 23:00N 43°03' E 006°59'5 8.0
2017-Sep-20 22:27N 43°01' E 006°54'3 7.9
2017-Sep-20 22:01N 42°59' E 006°50'4 7.6
2017-Sep-20 21:30N 42°58' E 006°45'4 7.7
2017-Sep-20 21:00N 42°57' E 006°40'4 7.7
2017-Sep-20 20:30N 42°57' E 006°34'4 7.9
2017-Sep-20 20:00N 42°56' E 006°29'2123.0
2017-Sep-20 20:00N 42°54' E 006°30'5 9.6 260 / 61017.0 5.4 16.0
2017-Sep-20 19:31N 42°55' E 006°24'4 8.1
2017-Sep-20 19:00N 42°55' E 006°18'4 8.4
2017-Sep-20 18:30N 42°55' E 006°13'4 7.6
2017-Sep-20 17:56N 42°58' E 006°08'10 7.3
2017-Sep-20 16:33N 43°05' E 005°58'0 8.1
2017-Sep-20 16:30N 43°05' E 005°57'3 5.5
2017-Sep-20 16:00N 43°06' E 005°54'020.1
2017-Sep-20 16:00N 43°06' E 005°54'0 0.6 170 / 51017.0 19.012.4
2017-Sep-20 15:28N 43°06' E 005°54'0 0.0
2017-Sep-20 14:58N 43°06' E 005°54'0 0.3
2017-Sep-20 14:00N 43°06' E 005°54'046.0 170 / 51017.0 19.012.4
2017-Sep-20 13:59N 43°06' E 005°54'0 0.0
2017-Sep-20 13:30N 43°06' E 005°54'0 0.0
2017-Sep-20 12:57N 43°06' E 005°54'0 0.0
2017-Sep-20 12:30N 43°06' E 005°54'0 0.0
2017-Sep-20 12:00N 43°06' E 005°54'0 0.0
2017-Sep-20 11:30N 43°06' E 005°54'0 0.0
2017-Sep-20 11:00N 43°06' E 005°54'0 0.3
2017-Sep-20 10:00N 43°06' E 005°54'13 1.8 140 / 41018.0 5.4 17.0 21.0
2017-Sep-20 03:00N 42°54' E 006°00'14 7.2 310 / 401017.0 14.012.3
2017-Sep-20 01:00N 42°48' E 005°42'1914.9 310 / 401017.0 14.012.3
2017-Sep-19 23:44N 42°55' E 005°18'3 9.8
2017-Sep-19 23:26N 42°56' E 005°14'410.2
2017-Sep-19 23:00N 42°57' E 005°09'510.2
2017-Sep-19 22:30N 42°59' E 005°02'510.2
2017-Sep-19 22:00N 43°00' E 004°55'5 9.8
2017-Sep-19 21:30N 43°02' E 004°49'510.2
2017-Sep-19 21:01N 43°03' E 004°42'510.1
2017-Sep-19 20:30N 43°05' E 004°36'510.4
2017-Sep-19 20:00N 43°06' E 004°29'4232.5
2017-Sep-19 20:00N 43°06' E 004°24'2 4.3 320 / 261021.0 5.4 16.0 21.0
2017-Sep-19 19:30N 43°08' E 004°22'510.3
2017-Sep-19 19:00N 43°09' E 004°16'510.1
2017-Sep-19 18:30N 43°11' E 004°09'510.1
2017-Sep-19 18:00N 43°12' E 004°02'510.3
2017-Sep-19 17:30N 43°14' E 003°56'510.3
2017-Sep-19 17:00N 43°17' E 003°51'2144.1
2017-Sep-19 17:00N 43°18' E 003°48'4 8.1 050 / 381020.0 18.0 9.2
2017-Sep-19 16:30N 43°22' E 003°47'4 7.3
2017-Sep-19 16:00N 43°24' E 003°43'0 0.0
2017-Sep-19 15:24N 43°24' E 003°43'0 0.0
2017-Sep-19 14:51N 43°24' E 003°43'0 0.0
2017-Sep-19 14:30N 43°24' E 003°43'0 0.0
2017-Sep-19 14:00N 43°24' E 003°43'144.3
2017-Sep-19 14:00N 43°24' E 003°42'1 1.4 050 / 381020.0 18.0 9.2
2017-Sep-19 13:30N 43°24' E 003°43'0 0.0
2017-Sep-19 13:00N 43°24' E 003°43'0 0.0
2017-Sep-19 12:27N 43°24' E 003°43'0 0.0
2017-Sep-19 12:00N 43°24' E 003°43'0 0.0
2017-Sep-19 11:30N 43°24' E 003°43'0 0.0
2017-Sep-19 11:00N 43°24' E 003°43'0 0.0
2017-Sep-19 10:21N 43°24' E 003°43'0 0.0
2017-Sep-19 10:00N 43°24' E 003°43'0 0.0
2017-Sep-19 09:30N 43°24' E 003°43'1 1.3
2017-Sep-19 09:00N 43°24' E 003°42'120.1 270 / 221021.0 5.4 17.0 21.0
2017-Sep-19 08:57N 43°24' E 003°43'0 0.0
2017-Sep-19 08:30N 43°24' E 003°43'0 0.0
2017-Sep-19 08:00N 43°24' E 003°43'0 0.0
2017-Sep-19 07:27N 43°24' E 003°43'0 0.0
2017-Sep-19 07:00N 43°24' E 003°43'0 0.0
2017-Sep-19 06:27N 43°24' E 003°43'0 0.0
2017-Sep-19 06:00N 43°24' E 003°43'4243.8
2017-Sep-19 06:00N 43°24' E 003°48'4 6.4 010 / 601019.0 1.6 10.8
2017-Sep-19 05:24N 43°24' E 003°43'0 0.0
2017-Sep-19 05:00N 43°24' E 003°43'0 0.5
2017-Sep-19 04:31N 43°24' E 003°43'3 6.1
2017-Sep-19 04:00N 43°23' E 003°47'611.3
2017-Sep-19 03:31N 43°18' E 003°51'611.0
2017-Sep-19 03:00N 43°13' E 003°54'612.3
2017-Sep-19 02:30N 43°07' E 003°51'1325.2
2017-Sep-19 02:00N 42°54' E 003°48'8612.2 280 / 291019.0 16.010.8
2017-Sep-18 19:00N 41°36' E 003°00'3813.3 030 / 121020.0 5.4 17.0 21.0
2017-Sep-18 16:08N 41°17' E 002°16'510.3
2017-Sep-18 15:41N 41°18' E 002°10'3 0.4
2017-Sep-18 08:00N 41°18' E 002°06'0 0.0 050 / 151018.0 5.4 20.0 21.0
2017-Sep-18 04:00N 41°18' E 002°06'3 2.6 1017.0 19.019.0
2017-Sep-18 02:41N 41°18' E 002°11'713.3
2017-Sep-18 02:08N 41°12' E 002°07'214.8
2017-Sep-18 02:00N 41°10' E 002°05'6409.5
2017-Sep-18 02:00N 41°06' E 002°00'2 3.2 1017.0 19.019.0
2017-Sep-18 01:30N 41°05' E 001°59'714.6
2017-Sep-18 01:00N 40°59' E 001°52'815.5
2017-Sep-18 00:30N 40°54' E 001°45'815.4
2017-Sep-18 00:00N 40°48' E 001°38'815.5
2017-Sep-17 23:30N 40°42' E 001°31'714.9
2017-Sep-17 23:00N 40°37' E 001°24'815.4
2017-Sep-17 22:30N 40°32' E 001°17'815.7
2017-Sep-17 22:00N 40°26' E 001°09'815.5
2017-Sep-17 21:30N 40°21' E 001°02'815.4
2017-Sep-17 21:00N 40°16' E 000°54'815.6
2017-Sep-17 20:30N 40°10' E 000°47'2416.0
2017-Sep-17 19:00N 39°54' E 000°24'28 9.2 170 / 151017.0 5.4 17.0 21.0
2017-Sep-17 16:00N 39°30' E 000°06'11 5.5 040 / 221012.0 19.015.9
2017-Sep-17 14:00N 39°24' E 000°18'28 5.6 130 / 161016.0 22.015.8
2017-Sep-17 09:00N 39°24' W 000°18'28 9.3
2017-Sep-17 06:00N 39°24' E 000°18'34 4.3 020 / 51015.0 20.016.9
2017-Sep-16 21:54N 39°16' E 001°01'5 9.4
2017-Sep-16 21:24N 39°15' E 001°07'10 9.4
2017-Sep-16 20:22N 39°14' E 001°20'3 9.3
2017-Sep-16 19:59N 39°13' E 001°24'5 9.2
2017-Sep-16 19:27N 39°13' E 001°30'4 9.2
2017-Sep-16 19:00N 39°12' E 001°36'4273.2
2017-Sep-16 19:00N 39°12' E 001°30'917.7
2017-Sep-16 18:30N 39°09' E 001°41'5 9.7
2017-Sep-16 18:00N 39°05' E 001°43'5 9.5
2017-Sep-16 17:30N 38°60' E 001°42'5 9.6
2017-Sep-16 17:00N 38°56' E 001°38'5 9.8
2017-Sep-16 16:30N 38°54' E 001°32'4 8.9
2017-Sep-16 16:01N 38°54' E 001°27'2147.4
2017-Sep-16 16:00N 38°54' E 001°30'2 4.3 040 / 221012.0 19.015.9
2017-Sep-16 15:28N 38°54' E 001°27'0 0.0
2017-Sep-16 14:55N 38°54' E 001°27'0 0.0
2017-Sep-16 14:28N 38°54' E 001°27'0 0.0
2017-Sep-16 13:58N 38°54' E 001°27'0 0.0
2017-Sep-16 13:28N 38°54' E 001°27'2 5.1
2017-Sep-16 13:00N 38°54' E 001°24'2106.4 020 / 51015.0 20.016.9
2017-Sep-16 12:58N 38°54' E 001°27'0 0.0
2017-Sep-16 12:25N 38°54' E 001°27'0 0.0
2017-Sep-16 11:58N 38°54' E 001°27'0 0.0
2017-Sep-16 11:28N 38°54' E 001°27'0 0.0
2017-Sep-16 10:58N 38°54' E 001°27'0 0.0
2017-Sep-16 10:28N 38°54' E 001°27'0 0.0
2017-Sep-16 10:00N 38°54' E 001°27'0 0.0
2017-Sep-16 09:29N 38°54' E 001°27'2 4.9
2017-Sep-16 09:00N 38°54' E 001°24'21745.5 030 / 71015.0 5.4 17.0 21.0
2017-Sep-16 08:59N 38°54' E 001°27'0 0.0
2017-Sep-16 08:31N 38°54' E 001°27'0 0.0
2017-Sep-16 08:00N 38°54' E 001°27'0 0.0
2017-Sep-16 07:30N 38°54' E 001°27'0 0.0
2017-Sep-16 07:00N 38°54' E 001°27'0 0.0
2017-Sep-16 06:29N 38°54' E 001°27'0 0.0
2017-Sep-16 06:00N 38°54' E 001°27'7490.5
2017-Sep-16 06:00N 38°54' E 001°18'714.2 040 / 221012.0 19.015.9
2017-Sep-16 05:30N 38°54' E 001°27'0 0.0
2017-Sep-16 05:00N 38°54' E 001°27'0 0.0
2017-Sep-16 04:29N 38°54' E 001°27'1 1.5
2017-Sep-16 04:00N 38°54' E 001°28'3 5.9
2017-Sep-16 03:29N 38°54' E 001°32'3 5.2
2017-Sep-16 03:00N 38°56' E 001°34'3 5.3
2017-Sep-16 02:30N 38°57' E 001°37'3 5.9
2017-Sep-16 02:00N 38°59' E 001°40'6406.0
2017-Sep-16 02:00N 38°54' E 001°36'917.8 040 / 221012.0 19.015.9
2017-Sep-16 01:31N 39°00' E 001°43'3 6.1
2017-Sep-16 01:00N 39°02' E 001°47'3 6.3
2017-Sep-16 00:30N 39°04' E 001°50'3 5.7
2017-Sep-16 00:00N 39°05' E 001°53'3 6.3
2017-Sep-15 23:30N 39°07' E 001°57'3 6.4
2017-Sep-15 23:00N 39°09' E 002°00'3 6.5
2017-Sep-15 22:30N 39°11' E 002°04'3 6.4
2017-Sep-15 22:00N 39°12' E 002°07'3 6.6
2017-Sep-15 21:30N 39°14' E 002°11'3 6.6
2017-Sep-15 21:00N 39°16' E 002°14'3 6.5
2017-Sep-15 20:31N 39°18' E 002°18'3 5.1
2017-Sep-15 20:00N 39°19' E 002°20'3 5.0
2017-Sep-15 19:30N 39°21' E 002°23'3 5.6
2017-Sep-15 19:00N 39°22' E 002°26'4301.7
2017-Sep-15 19:00N 39°18' E 002°24'714.2 050 / 301011.0 5.4 21.0 21.0
2017-Sep-15 18:30N 39°23' E 002°29'3 5.6
2017-Sep-15 18:00N 39°25' E 002°32'3 5.3
2017-Sep-15 17:31N 39°27' E 002°35'3 6.0
2017-Sep-15 17:01N 39°30' E 002°37'139.1
2017-Sep-15 17:00N 39°30' E 002°36'3 6.6 040 / 151010.0 20.018.5
2017-Sep-15 16:30N 39°32' E 002°39'1 1.8
2017-Sep-15 16:00N 39°33' E 002°38'0 0.0
2017-Sep-15 15:30N 39°33' E 002°38'0 0.0
2017-Sep-15 15:00N 39°33' E 002°38'0 0.0
2017-Sep-15 14:30N 39°33' E 002°38'0 0.0
2017-Sep-15 14:00N 39°33' E 002°38'3833.7
2017-Sep-15 14:00N 39°30' E 002°36'3 6.1 040 / 151010.0 20.018.5
2017-Sep-15 13:30N 39°33' E 002°38'0 0.0
2017-Sep-15 13:00N 39°33' E 002°38'0 0.0
2017-Sep-15 12:30N 39°33' E 002°38'0 0.0
2017-Sep-15 12:00N 39°33' E 002°38'0 0.0
2017-Sep-15 11:30N 39°33' E 002°38'0 0.0
2017-Sep-15 11:00N 39°33' E 002°38'0 0.0
2017-Sep-15 10:29N 39°33' E 002°38'0 0.0
2017-Sep-15 10:00N 39°33' E 002°38'3338.7
2017-Sep-15 10:00N 39°30' E 002°36'3 6.1 050 / 191013.0 5.4 23.0 21.0
2017-Sep-15 09:30N 39°33' E 002°38'0 0.0
2017-Sep-15 09:00N 39°33' E 002°38'0 0.0
2017-Sep-15 08:30N 39°33' E 002°38'0 0.0
2017-Sep-15 08:00N 39°33' E 002°38'0 0.0
2017-Sep-15 07:31N 39°33' E 002°38'1 2.0
2017-Sep-15 07:00N 39°33' E 002°39'4 8.9
2017-Sep-15 06:30N 39°29' E 002°40'815.9
2017-Sep-15 06:00N 39°21' E 002°43'917.2
2017-Sep-15 05:30N 39°13' E 002°45'917.4
2017-Sep-15 05:00N 39°07' E 002°53'917.5
2017-Sep-15 04:30N 39°02' E 003°02'917.2
2017-Sep-15 04:00N 38°60' E 003°13'917.5
2017-Sep-15 03:30N 38°58' E 003°24'917.5
2017-Sep-15 02:59N 38°56' E 003°35'2120.7
2017-Sep-15 02:00N 38°48' E 004°00'9716.1 1015.0 22.017.5
2017-Sep-14 20:00N 38°24' E 006°00'5618.6 030 / 81017.0 5.4 24.0 21.0
2017-Sep-14 17:00N 37°48' E 006°54'7921.5 080 / 41016.0 22.015.8
2017-Sep-14 13:18N 38°00' E 008°34'517.5
2017-Sep-14 13:00N 37°59' E 008°40'6363.0
2017-Sep-14 13:00N 37°54' E 008°36'1223.8 080 / 41016.0 22.015.8
2017-Sep-14 12:29N 37°57' E 008°51'917.4
2017-Sep-14 11:59N 37°55' E 009°01'917.4
2017-Sep-14 11:29N 37°53' E 009°12'817.6
2017-Sep-14 11:00N 37°51' E 009°23'3117.6
2017-Sep-14 09:13N 37°43' E 010°01'1148.1
2017-Sep-14 09:00N 37°36' E 010°12'4916.4 170 / 151020.0 5.4 23.0 21.0
2017-Sep-14 06:00N 37°24' E 011°12'6117.2 350 / 131019.0 22.017.5
2017-Sep-14 02:25N 37°09' E 012°27'818.4
2017-Sep-14 02:00N 37°06' E 012°36'179.5 350 / 131019.0 22.017.5
2017-Sep-14 01:59N 37°07' E 012°36'917.6
2017-Sep-14 01:30N 37°04' E 012°46'917.6
2017-Sep-14 01:00N 37°02' E 012°57'1117.8
2017-Sep-14 00:22N 36°59' E 013°10'717.8
2017-Sep-14 00:00N 36°57' E 013°18'917.7
2017-Sep-13 23:30N 36°54' E 013°29'917.6
2017-Sep-13 23:00N 36°52' E 013°39'917.5
2017-Sep-13 22:30N 36°50' E 013°50'917.3
2017-Sep-13 22:00N 36°47' E 014°00'917.6
2017-Sep-13 21:30N 36°45' E 014°11'918.0
2017-Sep-13 21:00N 36°42' E 014°21'918.3
2017-Sep-13 20:30N 36°39' E 014°32'918.1
2017-Sep-13 20:00N 36°37' E 014°43'8851.4
2017-Sep-13 20:00N 36°30' E 014°48'815.6
2017-Sep-13 19:30N 36°36' E 014°54'916.9
2017-Sep-13 19:00N 36°35' E 015°05'1117.4
2017-Sep-13 18:23N 36°41' E 015°15'717.6
2017-Sep-13 18:00N 36°47' E 015°19'917.4
2017-Sep-13 17:30N 36°55' E 015°24'816.8
2017-Sep-13 17:00N 37°03' E 015°24'1515.3
2017-Sep-13 16:00N 37°18' E 015°18'11 5.6 060 / 101020.0 23.016.9
2017-Sep-13 14:00N 37°24' E 015°06'6 0.7 060 / 101020.0 23.016.9
2017-Sep-13 05:00N 37°30' E 015°06'19 9.5 310 / 101018.0 23.023.0
2017-Sep-13 03:00N 37°30' E 015°30'5 4.8 310 / 101018.0 23.023.0
2017-Sep-13 02:00N 37°30' E 015°36'67 9.6 310 / 101018.0 23.023.0
2017-Sep-12 19:00N 38°12' E 016°42'2613.0 280 / 171017.0 5.4 23.0 21.0
2017-Sep-12 17:00N 38°30' E 017°06'3411.2 260 / 301012.0 24.024.0
2017-Sep-12 14:00N 38°54' E 017°36'5310.6 260 / 301012.0 24.024.0
2017-Sep-12 09:00N 39°36' E 018°18'5711.4 270 / 241012.0 5.4 24.0 21.0
2017-Sep-12 04:00N 40°30' E 018°42'19 9.3 240 / 301006.0 23.021.6
2017-Sep-12 02:00N 40°48' E 018°36'   240 / 301006.0 23.021.6
Track history (hours):
 
Tides and Currents Weather Stations Pressure Air Temp Water Temp Dewpoint Dewpoint Depression Visibility Wind Speed Wind Dir Waves Ship Positions

Celebrity Constellation

Last reported at 2017-Sep-22 02:00 UTC. Time now 2017-Sep-22 06:21 UTC.
Position N 42°12' E 010°54'.

Length 294 m; draft 8.3 m.

Type: Passenger vessel. MMSI: 249046000.

Barometer 1020.0 mb
Air temperature 18.0 ° C
Dewpoint 18.0 ° C

Date/timePositionNaut miles runAvg speedWind from/ knotsBaromVisibWave heightAir tempDewpointWater temp
2017-Sep-22 02:00N 42°12' E 010°54'5815.1 1020.0 18.018.0
2017-Sep-21 22:09N 42°47' E 009°51'2315.9
2017-Sep-21 20:42N 43°06' E 009°33'415.1
2017-Sep-21 20:25N 43°08' E 009°28'615.5
2017-Sep-21 20:00N 43°10' E 009°20'916.4
2017-Sep-21 19:29N 43°13' E 009°09'613.0
2017-Sep-21 19:00N 43°12' E 009°00'4306.2 230 / 91020.0 5.4 16.0 21.0
2017-Sep-21 18:59N 43°16' E 008°58'817.0
2017-Sep-21 18:30N 43°18' E 008°47'1017.3
2017-Sep-21 17:54N 43°22' E 008°34'717.3
2017-Sep-21 17:30N 43°24' E 008°25'917.1
2017-Sep-21 17:00N 43°27' E 008°14'1317.2
2017-Sep-21 16:13N 43°31' E 007°56'71318.3
2017-Sep-21 16:00N 43°36' E 006°18'671180.7 080 / 51020.0 5.4 18.0 21.0
2017-Sep-21 15:56N 43°32' E 007°50'817.0
2017-Sep-21 15:28N 43°34' E 007°39'816.8
2017-Sep-21 15:00N 43°37' E 007°29'715.2
2017-Sep-21 14:30N 43°39' E 007°19'2 0.9
2017-Sep-21 12:05N 43°41' E 007°19'0 0.2
2017-Sep-21 12:00N 43°41' E 007°19'4414.7
2017-Sep-21 09:00N 43°36' E 006°18'44 9.1 080 / 51020.0 5.4 18.0 21.0
2017-Sep-21 04:08N 43°39' E 007°19'3 8.8
2017-Sep-21 03:48N 43°37' E 007°20'3 8.2
2017-Sep-21 03:30N 43°34' E 007°21'4 8.2
2017-Sep-21 03:00N 43°30' E 007°22'4 8.3
2017-Sep-21 02:30N 43°26' E 007°23'4 8.1
2017-Sep-21 02:00N 43°23' E 007°21'5304.1
2017-Sep-21 02:00N 43°18' E 007°18'1 2.2 160 / 81018.0 17.017.0
2017-Sep-21 01:30N 43°19' E 007°18'4 8.2
2017-Sep-21 01:00N 43°16' E 007°15'4 8.4
2017-Sep-21 00:30N 43°12' E 007°12'4 8.4
2017-Sep-21 00:00N 43°09' E 007°08'4 8.5
2017-Sep-20 23:30N 43°06' E 007°03'4 8.4
2017-Sep-20 23:00N 43°03' E 006°59'5 8.0
2017-Sep-20 22:27N 43°01' E 006°54'3 7.9
2017-Sep-20 22:01N 42°59' E 006°50'4 7.6
2017-Sep-20 21:30N 42°58' E 006°45'4 7.7
2017-Sep-20 21:00N 42°57' E 006°40'4 7.7
2017-Sep-20 20:30N 42°57' E 006°34'4 7.9
2017-Sep-20 20:00N 42°56' E 006°29'2123.0
2017-Sep-20 20:00N 42°54' E 006°30'5 9.6 260 / 61017.0 5.4 16.0
2017-Sep-20 19:31N 42°55' E 006°24'4 8.1
2017-Sep-20 19:00N 42°55' E 006°18'4 8.4
2017-Sep-20 18:30N 42°55' E 006°13'4 7.6
2017-Sep-20 17:56N 42°58' E 006°08'10 7.3
2017-Sep-20 16:33N 43°05' E 005°58'0 8.1
2017-Sep-20 16:30N 43°05' E 005°57'3 5.5
2017-Sep-20 16:00N 43°06' E 005°54'020.1
2017-Sep-20 16:00N 43°06' E 005°54'0 0.6 170 / 51017.0 19.012.4
2017-Sep-20 15:28N 43°06' E 005°54'0 0.0
2017-Sep-20 14:58N 43°06' E 005°54'0 0.3
2017-Sep-20 14:00N 43°06' E 005°54'046.0 170 / 51017.0 19.012.4
2017-Sep-20 13:59N 43°06' E 005°54'0 0.0
2017-Sep-20 13:30N 43°06' E 005°54'0 0.0
2017-Sep-20 12:57N 43°06' E 005°54'0 0.0
2017-Sep-20 12:30N 43°06' E 005°54'0 0.0
2017-Sep-20 12:00N 43°06' E 005°54'0 0.0
2017-Sep-20 11:30N 43°06' E 005°54'0 0.0
2017-Sep-20 11:00N 43°06' E 005°54'0 0.3
2017-Sep-20 10:00N 43°06' E 005°54'13 1.8 140 / 41018.0 5.4 17.0 21.0
2017-Sep-20 03:00N 42°54' E 006°00'14 7.2 310 / 401017.0 14.012.3
2017-Sep-20 01:00N 42°48' E 005°42'1914.9 310 / 401017.0 14.012.3
2017-Sep-19 23:44N 42°55' E 005°18'3 9.8
2017-Sep-19 23:26N 42°56' E 005°14'410.2
2017-Sep-19 23:00N 42°57' E 005°09'510.2
2017-Sep-19 22:30N 42°59' E 005°02'510.2
2017-Sep-19 22:00N 43°00' E 004°55'5 9.8
2017-Sep-19 21:30N 43°02' E 004°49'510.2
2017-Sep-19 21:01N 43°03' E 004°42'510.1
2017-Sep-19 20:30N 43°05' E 004°36'510.4
2017-Sep-19 20:00N 43°06' E 004°29'4232.5
2017-Sep-19 20:00N 43°06' E 004°24'2 4.3 320 / 261021.0 5.4 16.0 21.0
2017-Sep-19 19:30N 43°08' E 004°22'510.3
2017-Sep-19 19:00N 43°09' E 004°16'510.1
2017-Sep-19 18:30N 43°11' E 004°09'510.1
2017-Sep-19 18:00N 43°12' E 004°02'510.3
2017-Sep-19 17:30N 43°14' E 003°56'510.3
2017-Sep-19 17:00N 43°17' E 003°51'2144.1
2017-Sep-19 17:00N 43°18' E 003°48'4 8.1 050 / 381020.0 18.0 9.2
2017-Sep-19 16:30N 43°22' E 003°47'4 7.3
2017-Sep-19 16:00N 43°24' E 003°43'0 0.0
2017-Sep-19 15:24N 43°24' E 003°43'0 0.0
2017-Sep-19 14:51N 43°24' E 003°43'0 0.0
2017-Sep-19 14:30N 43°24' E 003°43'0 0.0
2017-Sep-19 14:00N 43°24' E 003°43'144.3
2017-Sep-19 14:00N 43°24' E 003°42'1 1.4 050 / 381020.0 18.0 9.2
2017-Sep-19 13:30N 43°24' E 003°43'0 0.0
2017-Sep-19 13:00N 43°24' E 003°43'0 0.0
2017-Sep-19 12:27N 43°24' E 003°43'0 0.0
2017-Sep-19 12:00N 43°24' E 003°43'0 0.0
2017-Sep-19 11:30N 43°24' E 003°43'0 0.0
2017-Sep-19 11:00N 43°24' E 003°43'0 0.0
2017-Sep-19 10:21N 43°24' E 003°43'0 0.0
2017-Sep-19 10:00N 43°24' E 003°43'0 0.0
2017-Sep-19 09:30N 43°24' E 003°43'1 1.3
2017-Sep-19 09:00N 43°24' E 003°42'120.1 270 / 221021.0 5.4 17.0 21.0
2017-Sep-19 08:57N 43°24' E 003°43'0 0.0
2017-Sep-19 08:30N 43°24' E 003°43'0 0.0
2017-Sep-19 08:00N 43°24' E 003°43'0 0.0
2017-Sep-19 07:27N 43°24' E 003°43'0 0.0
2017-Sep-19 07:00N 43°24' E 003°43'0 0.0
2017-Sep-19 06:27N 43°24' E 003°43'0 0.0
2017-Sep-19 06:00N 43°24' E 003°43'4243.8
2017-Sep-19 06:00N 43°24' E 003°48'4 6.4 010 / 601019.0 1.6 10.8
2017-Sep-19 05:24N 43°24' E 003°43'0 0.0
2017-Sep-19 05:00N 43°24' E 003°43'0 0.5
2017-Sep-19 04:31N 43°24' E 003°43'3 6.1
2017-Sep-19 04:00N 43°23' E 003°47'611.3
2017-Sep-19 03:31N 43°18' E 003°51'611.0
2017-Sep-19 03:00N 43°13' E 003°54'612.3
2017-Sep-19 02:30N 43°07' E 003°51'1325.2
2017-Sep-19 02:00N 42°54' E 003°48'8612.2 280 / 291019.0 16.010.8
2017-Sep-18 19:00N 41°36' E 003°00'3813.3 030 / 121020.0 5.4 17.0 21.0
2017-Sep-18 16:08N 41°17' E 002°16'510.3
2017-Sep-18 15:41N 41°18' E 002°10'3 0.4
2017-Sep-18 08:00N 41°18' E 002°06'0 0.0 050 / 151018.0 5.4 20.0 21.0
2017-Sep-18 04:00N 41°18' E 002°06'3 2.6 1017.0 19.019.0
2017-Sep-18 02:41N 41°18' E 002°11'713.3
2017-Sep-18 02:08N 41°12' E 002°07'214.8
2017-Sep-18 02:00N 41°10' E 002°05'6409.5
2017-Sep-18 02:00N 41°06' E 002°00'2 3.2 1017.0 19.019.0
2017-Sep-18 01:30N 41°05' E 001°59'714.6
2017-Sep-18 01:00N 40°59' E 001°52'815.5
2017-Sep-18 00:30N 40°54' E 001°45'815.4
2017-Sep-18 00:00N 40°48' E 001°38'815.5
2017-Sep-17 23:30N 40°42' E 001°31'714.9
2017-Sep-17 23:00N 40°37' E 001°24'815.4
2017-Sep-17 22:30N 40°32' E 001°17'815.7
2017-Sep-17 22:00N 40°26' E 001°09'815.5
2017-Sep-17 21:30N 40°21' E 001°02'815.4
2017-Sep-17 21:00N 40°16' E 000°54'815.6
2017-Sep-17 20:30N 40°10' E 000°47'2416.0
2017-Sep-17 19:00N 39°54' E 000°24'28 9.2 170 / 151017.0 5.4 17.0 21.0
2017-Sep-17 16:00N 39°30' E 000°06'11 5.5 040 / 221012.0 19.015.9
2017-Sep-17 14:00N 39°24' E 000°18'28 5.6 130 / 161016.0 22.015.8
2017-Sep-17 09:00N 39°24' W 000°18'28 9.3
2017-Sep-17 06:00N 39°24' E 000°18'34 4.3 020 / 51015.0 20.016.9
2017-Sep-16 21:54N 39°16' E 001°01'5 9.4
2017-Sep-16 21:24N 39°15' E 001°07'10 9.4
2017-Sep-16 20:22N 39°14' E 001°20'3 9.3
2017-Sep-16 19:59N 39°13' E 001°24'5 9.2
2017-Sep-16 19:27N 39°13' E 001°30'4 9.2
2017-Sep-16 19:00N 39°12' E 001°36'4273.2
2017-Sep-16 19:00N 39°12' E 001°30'917.7
2017-Sep-16 18:30N 39°09' E 001°41'5 9.7
2017-Sep-16 18:00N 39°05' E 001°43'5 9.5
2017-Sep-16 17:30N 38°60' E 001°42'5 9.6
2017-Sep-16 17:00N 38°56' E 001°38'5 9.8
2017-Sep-16 16:30N 38°54' E 001°32'4 8.9
2017-Sep-16 16:01N 38°54' E 001°27'2147.4
2017-Sep-16 16:00N 38°54' E 001°30'2 4.3 040 / 221012.0 19.015.9
2017-Sep-16 15:28N 38°54' E 001°27'0 0.0
2017-Sep-16 14:55N 38°54' E 001°27'0 0.0
2017-Sep-16 14:28N 38°54' E 001°27'0 0.0
2017-Sep-16 13:58N 38°54' E 001°27'0 0.0
2017-Sep-16 13:28N 38°54' E 001°27'2 5.1
2017-Sep-16 13:00N 38°54' E 001°24'2106.4 020 / 51015.0 20.016.9
2017-Sep-16 12:58N 38°54' E 001°27'0 0.0
2017-Sep-16 12:25N 38°54' E 001°27'0 0.0
2017-Sep-16 11:58N 38°54' E 001°27'0 0.0
2017-Sep-16 11:28N 38°54' E 001°27'0 0.0
2017-Sep-16 10:58N 38°54' E 001°27'0 0.0
2017-Sep-16 10:28N 38°54' E 001°27'0 0.0
2017-Sep-16 10:00N 38°54' E 001°27'0 0.0
2017-Sep-16 09:29N 38°54' E 001°27'2 4.9
2017-Sep-16 09:00N 38°54' E 001°24'21745.5 030 / 71015.0 5.4 17.0 21.0
2017-Sep-16 08:59N 38°54' E 001°27'0 0.0
2017-Sep-16 08:31N 38°54' E 001°27'0 0.0
2017-Sep-16 08:00N 38°54' E 001°27'0 0.0
2017-Sep-16 07:30N 38°54' E 001°27'0 0.0
2017-Sep-16 07:00N 38°54' E 001°27'0 0.0
2017-Sep-16 06:29N 38°54' E 001°27'0 0.0
2017-Sep-16 06:00N 38°54' E 001°27'7490.5
2017-Sep-16 06:00N 38°54' E 001°18'714.2 040 / 221012.0 19.015.9
2017-Sep-16 05:30N 38°54' E 001°27'0 0.0
2017-Sep-16 05:00N 38°54' E 001°27'0 0.0
2017-Sep-16 04:29N 38°54' E 001°27'1 1.5
2017-Sep-16 04:00N 38°54' E 001°28'3 5.9
2017-Sep-16 03:29N 38°54' E 001°32'3 5.2
2017-Sep-16 03:00N 38°56' E 001°34'3 5.3
2017-Sep-16 02:30N 38°57' E 001°37'3 5.9
2017-Sep-16 02:00N 38°59' E 001°40'6406.0
2017-Sep-16 02:00N 38°54' E 001°36'917.8 040 / 221012.0 19.015.9
2017-Sep-16 01:31N 39°00' E 001°43'3 6.1
2017-Sep-16 01:00N 39°02' E 001°47'3 6.3
2017-Sep-16 00:30N 39°04' E 001°50'3 5.7
2017-Sep-16 00:00N 39°05' E 001°53'3 6.3
2017-Sep-15 23:30N 39°07' E 001°57'3 6.4
2017-Sep-15 23:00N 39°09' E 002°00'3 6.5
2017-Sep-15 22:30N 39°11' E 002°04'3 6.4
2017-Sep-15 22:00N 39°12' E 002°07'3 6.6
2017-Sep-15 21:30N 39°14' E 002°11'3 6.6
2017-Sep-15 21:00N 39°16' E 002°14'3 6.5
2017-Sep-15 20:31N 39°18' E 002°18'3 5.1
2017-Sep-15 20:00N 39°19' E 002°20'3 5.0
2017-Sep-15 19:30N 39°21' E 002°23'3 5.6
2017-Sep-15 19:00N 39°22' E 002°26'4301.7
2017-Sep-15 19:00N 39°18' E 002°24'714.2 050 / 301011.0 5.4 21.0 21.0
2017-Sep-15 18:30N 39°23' E 002°29'3 5.6
2017-Sep-15 18:00N 39°25' E 002°32'3 5.3
2017-Sep-15 17:31N 39°27' E 002°35'3 6.0
2017-Sep-15 17:01N 39°30' E 002°37'139.1
2017-Sep-15 17:00N 39°30' E 002°36'3 6.6 040 / 151010.0 20.018.5
2017-Sep-15 16:30N 39°32' E 002°39'1 1.8
2017-Sep-15 16:00N 39°33' E 002°38'0 0.0
2017-Sep-15 15:30N 39°33' E 002°38'0 0.0
2017-Sep-15 15:00N 39°33' E 002°38'0 0.0
2017-Sep-15 14:30N 39°33' E 002°38'0 0.0
2017-Sep-15 14:00N 39°33' E 002°38'3833.7
2017-Sep-15 14:00N 39°30' E 002°36'3 6.1 040 / 151010.0 20.018.5
2017-Sep-15 13:30N 39°33' E 002°38'0 0.0
2017-Sep-15 13:00N 39°33' E 002°38'0 0.0
2017-Sep-15 12:30N 39°33' E 002°38'0 0.0
2017-Sep-15 12:00N 39°33' E 002°38'0 0.0
2017-Sep-15 11:30N 39°33' E 002°38'0 0.0
2017-Sep-15 11:00N 39°33' E 002°38'0 0.0
2017-Sep-15 10:29N 39°33' E 002°38'0 0.0
2017-Sep-15 10:00N 39°33' E 002°38'3338.7
2017-Sep-15 10:00N 39°30' E 002°36'3 6.1 050 / 191013.0 5.4 23.0 21.0
2017-Sep-15 09:30N 39°33' E 002°38'0 0.0
2017-Sep-15 09:00N 39°33' E 002°38'0 0.0
2017-Sep-15 08:30N 39°33' E 002°38'0 0.0
2017-Sep-15 08:00N 39°33' E 002°38'0 0.0
2017-Sep-15 07:31N 39°33' E 002°38'1 2.0
2017-Sep-15 07:00N 39°33' E 002°39'4 8.9
2017-Sep-15 06:30N 39°29' E 002°40'815.9
2017-Sep-15 06:00N 39°21' E 002°43'917.2
2017-Sep-15 05:30N 39°13' E 002°45'917.4
2017-Sep-15 05:00N 39°07' E 002°53'917.5
2017-Sep-15 04:30N 39°02' E 003°02'917.2
2017-Sep-15 04:00N 38°60' E 003°13'917.5
2017-Sep-15 03:30N 38°58' E 003°24'917.5
2017-Sep-15 02:59N 38°56' E 003°35'2120.7
2017-Sep-15 02:00N 38°48' E 004°00'9716.1 1015.0 22.017.5
2017-Sep-14 20:00N 38°24' E 006°00'5618.6 030 / 81017.0 5.4 24.0 21.0
2017-Sep-14 17:00N 37°48' E 006°54'7921.5 080 / 41016.0 22.015.8
2017-Sep-14 13:18N 38°00' E 008°34'517.5
2017-Sep-14 13:00N 37°59' E 008°40'6363.0
2017-Sep-14 13:00N 37°54' E 008°36'1223.8 080 / 41016.0 22.015.8
2017-Sep-14 12:29N 37°57' E 008°51'917.4
2017-Sep-14 11:59N 37°55' E 009°01'917.4
2017-Sep-14 11:29N 37°53' E 009°12'817.6
2017-Sep-14 11:00N 37°51' E 009°23'3117.6
2017-Sep-14 09:13N 37°43' E 010°01'1148.1
2017-Sep-14 09:00N 37°36' E 010°12'4916.4 170 / 151020.0 5.4 23.0 21.0
2017-Sep-14 06:00N 37°24' E 011°12'6117.2 350 / 131019.0 22.017.5
2017-Sep-14 02:25N 37°09' E 012°27'818.4
2017-Sep-14 02:00N 37°06' E 012°36'179.5 350 / 131019.0 22.017.5
2017-Sep-14 01:59N 37°07' E 012°36'917.6
2017-Sep-14 01:30N 37°04' E 012°46'917.6
2017-Sep-14 01:00N 37°02' E 012°57'1117.8
2017-Sep-14 00:22N 36°59' E 013°10'717.8
2017-Sep-14 00:00N 36°57' E 013°18'917.7
2017-Sep-13 23:30N 36°54' E 013°29'917.6
2017-Sep-13 23:00N 36°52' E 013°39'917.5
2017-Sep-13 22:30N 36°50' E 013°50'917.3
2017-Sep-13 22:00N 36°47' E 014°00'917.6
2017-Sep-13 21:30N 36°45' E 014°11'918.0
2017-Sep-13 21:00N 36°42' E 014°21'918.3
2017-Sep-13 20:30N 36°39' E 014°32'918.1
2017-Sep-13 20:00N 36°37' E 014°43'8851.4
2017-Sep-13 20:00N 36°30' E 014°48'815.6
2017-Sep-13 19:30N 36°36' E 014°54'916.9
2017-Sep-13 19:00N 36°35' E 015°05'1117.4
2017-Sep-13 18:23N 36°41' E 015°15'717.6
2017-Sep-13 18:00N 36°47' E 015°19'917.4
2017-Sep-13 17:30N 36°55' E 015°24'816.8
2017-Sep-13 17:00N 37°03' E 015°24'1515.3
2017-Sep-13 16:00N 37°18' E 015°18'11 5.6 060 / 101020.0 23.016.9
2017-Sep-13 14:00N 37°24' E 015°06'6 0.7 060 / 101020.0 23.016.9
2017-Sep-13 05:00N 37°30' E 015°06'19 9.5 310 / 101018.0 23.023.0
2017-Sep-13 03:00N 37°30' E 015°30'5 4.8 310 / 101018.0 23.023.0
2017-Sep-13 02:00N 37°30' E 015°36'67 9.6 310 / 101018.0 23.023.0
2017-Sep-12 19:00N 38°12' E 016°42'2613.0 280 / 171017.0 5.4 23.0 21.0
2017-Sep-12 17:00N 38°30' E 017°06'3411.2 260 / 301012.0 24.024.0
2017-Sep-12 14:00N 38°54' E 017°36'5310.6 260 / 301012.0 24.024.0
2017-Sep-12 09:00N 39°36' E 018°18'5711.4 270 / 241012.0 5.4 24.0 21.0
2017-Sep-12 04:00N 40°30' E 018°42'19 9.3 240 / 301006.0 23.021.6
2017-Sep-12 02:00N 40°48' E 018°36'   240 / 301006.0 23.021.6

Dump ship's entire track history